createdAt,value
2023-05-10T00:07:39.341Z,1.13
2023-05-10T00:17:41.373Z,1.93
2023-05-10T00:27:43.421Z,2.40
2023-05-10T00:37:46.844Z,2.90
2023-05-10T00:47:49.082Z,4.15
2023-05-10T00:57:51.288Z,4.45
2023-05-10T01:07:53.605Z,5.30
2023-05-10T01:17:56.867Z,5.47
2023-05-10T01:28:18.782Z,6.33
2023-05-10T01:38:47.123Z,6.77
2023-05-10T01:48:53.221Z,7.50
2023-05-10T01:58:57.131Z,5.93
2023-05-10T02:09:01.546Z,4.27
2023-05-10T02:19:04.200Z,3.63
2023-05-10T02:29:07.614Z,1.87
2023-05-10T02:39:13.556Z,1.17
2023-05-10T02:49:16.254Z,1.10
2023-05-10T02:59:18.281Z,1.58
2023-05-10T03:09:20.800Z,1.60
2023-05-10T03:19:29.140Z,1.50
2023-05-10T03:29:32.309Z,2.10
2023-05-10T03:39:34.636Z,4.25
2023-05-10T03:49:38.050Z,7.93
2023-05-10T03:59:40.313Z,10.13
2023-05-10T04:09:42.444Z,10.88
2023-05-10T04:19:44.621Z,10.10
2023-05-10T04:29:46.717Z,9.93
2023-05-10T04:39:48.737Z,8.07
2023-05-10T04:49:51.214Z,11.05
2023-05-10T04:59:54.290Z,14.33
2023-05-10T05:09:56.656Z,17.90
2023-05-10T05:19:58.687Z,20.63
2023-05-10T05:30:00.821Z,19.23
2023-05-10T05:40:02.916Z,20.55
2023-05-10T05:50:05.761Z,22.83
2023-05-10T06:00:08.391Z,21.65
2023-05-10T06:10:16.274Z,22.37
2023-05-10T06:20:18.395Z,24.02
2023-05-10T06:30:21.085Z,24.80
2023-05-10T06:40:23.171Z,24.97
2023-05-10T06:50:25.265Z,26.52
2023-05-10T07:00:28.069Z,24.40
2023-05-10T07:10:30.789Z,25.08
2023-05-10T07:20:33.403Z,23.92
2023-05-10T07:30:35.722Z,21.73
2023-05-10T07:40:38.070Z,23.13
2023-05-10T07:50:40.089Z,22.55
2023-05-10T08:00:42.150Z,20.02
2023-05-10T08:10:44.315Z,21.65
2023-05-10T08:20:46.403Z,20.50
2023-05-10T08:30:48.506Z,22.08
2023-05-10T08:40:51.754Z,25.08
2023-05-10T08:50:58.336Z,22.53
2023-05-10T09:01:00.680Z,19.10
2023-05-10T09:11:03.813Z,20.75
2023-05-10T09:21:06.555Z,21.42
2023-05-10T09:31:08.674Z,17.92
2023-05-10T09:41:21.333Z,14.57
2023-05-10T09:51:25.247Z,11.85
2023-05-10T10:01:27.444Z,9.52
2023-05-10T10:11:29.850Z,8.00
2023-05-10T10:21:32.550Z,8.30
2023-05-10T10:31:57.060Z,6.93
2023-05-10T10:41:59.965Z,8.25
2023-05-10T10:52:15.636Z,7.25
2023-05-10T11:02:46.856Z,12.55
2023-05-10T11:13:11.160Z,11.68
2023-05-10T11:23:16.497Z,9.63
2023-05-10T11:33:20.582Z,10.63
2023-05-10T11:43:24.643Z,14.88
2023-05-10T11:53:28.096Z,13.25
2023-05-10T12:03:30.753Z,10.25
2023-05-10T12:13:32.897Z,10.38
2023-05-10T12:23:34.938Z,9.73
2023-05-10T12:33:39.765Z,8.35
2023-05-10T12:43:42.192Z,8.20
2023-05-10T12:53:49.765Z,6.85
2023-05-10T13:03:52.400Z,7.75
2023-05-10T13:13:56.531Z,8.68
2023-05-10T13:23:58.965Z,8.77
2023-05-10T13:34:01.153Z,9.38
2023-05-10T13:44:03.355Z,9.13
2023-05-10T13:54:05.980Z,7.60
2023-05-10T14:04:11.188Z,7.60
2023-05-10T14:14:14.248Z,4.50
2023-05-10T14:24:16.334Z,2.97
2023-05-10T14:34:18.604Z,4.78
2023-05-10T14:44:20.980Z,3.80
2023-05-10T14:54:22.999Z,3.35
2023-05-10T15:04:27.088Z,2.78
2023-05-10T15:14:31.460Z,2.47
2023-05-10T15:24:33.545Z,2.70
2023-05-10T15:34:37.156Z,2.70
2023-05-10T15:44:39.833Z,2.85
2023-05-10T15:54:42.098Z,2.90
2023-05-10T16:04:44.591Z,3.00
2023-05-10T16:14:48.002Z,4.00
2023-05-10T16:24:53.496Z,3.67
2023-05-10T16:34:55.571Z,4.53
2023-05-10T16:44:57.843Z,4.95
2023-05-10T16:54:59.906Z,5.82
2023-05-10T17:05:01.984Z,6.50
2023-05-10T17:15:05.062Z,7.25
2023-05-10T17:25:07.678Z,8.23
2023-05-10T17:35:10.239Z,9.65
2023-05-10T17:45:15.619Z,11.38
2023-05-10T17:55:18.241Z,13.52
2023-05-10T18:05:21.399Z,14.20
2023-05-10T18:15:24.598Z,14.63
2023-05-10T18:25:26.803Z,15.15
2023-05-10T18:35:28.884Z,14.52
2023-05-10T18:45:31.026Z,15.40
2023-05-10T18:55:33.345Z,15.25
2023-05-10T19:05:35.472Z,15.68
2023-05-10T19:15:39.809Z,15.63
2023-05-10T19:25:42.949Z,16.90
2023-05-10T19:35:45.510Z,16.20
2023-05-10T19:45:47.561Z,13.95
2023-05-10T19:55:49.696Z,14.40
2023-05-10T20:05:52.099Z,9.82
2023-05-10T20:15:58.100Z,9.23
2023-05-10T20:26:00.166Z,8.83
2023-05-10T20:36:02.200Z,9.32
2023-05-10T20:46:05.437Z,8.80
2023-05-10T20:56:07.721Z,9.43
2023-05-10T21:06:09.772Z,10.35
2023-05-10T21:16:12.157Z,11.20
2023-05-10T21:26:14.491Z,11.53
2023-05-10T21:36:16.626Z,12.60
2023-05-10T21:46:19.439Z,15.20
2023-05-10T21:56:21.643Z,15.55
2023-05-10T22:06:23.730Z,17.03
2023-05-10T22:16:25.825Z,15.75
2023-05-10T22:26:27.916Z,16.92
2023-05-10T22:36:30.632Z,17.23
2023-05-10T22:46:32.946Z,15.05
2023-05-10T22:56:35.050Z,14.93
2023-05-10T23:06:37.175Z,16.20
2023-05-10T23:16:39.301Z,16.27
2023-05-10T23:26:43.398Z,16.77
2023-05-10T23:36:45.407Z,17.75
2023-05-10T23:46:47.426Z,16.45
2023-05-10T23:56:51.399Z,16.83
